Terminal Aerodrome Forecast
Issued by NWS

Home | Current Version | Previous Version | Text Only | Print | Product List | Glossary On
Versions: 1 2 3 4 5 6 7 8 9 10 11 12 13 14 15 16 17 18 19 20
000
FTUS43 KEAX 302300
TAFSTJ
TAF
KSTJ 302320Z 0100/0124 10005KT P6SM BKN100
     FM010400 13007KT P6SM VCTS BKN100CB
      TEMPO 0105/0109 5SM -TSRA BR BKN050CB
     FM011200 16008KT P6SM SCT050 BKN200
     FM012000 11006KT P6SM BKN100=

USA.gov is the U.S. government's official web portal to all federal, state and local government web resources and services.